Time;durP1;ratioP1;P1;durP2;ratioP2;P2;SDS_P1;SDS_P2;PMS_P1;PMS_P2;Temp;Humidity;BMP_temperature;BMP_pressure;BME280_temperature;BME280_humidity;BME280_pressure;Samples;Min_cycle;Max_cycle;Signal;HPM_P1;HPM_P2
2023/08/29 09:40:30;;;;;;;14.70;12.50;;;;;;;14.05;100.00;96089.06;2084137;28;20553;-66
2023/08/29 09:42:55;;;;;;;19.23;12.15;;;;;;;14.39;100.00;96094.63;2098722;27;20570;-67
2023/08/29 09:45:15;;;;;;;14.77;11.23;;;;;;;14.45;100.00;96090.72;2091332;27;20556;-67
2023/08/29 09:47:44;;;;;;;14.50;10.02;;;;;;;14.52;100.00;96081.50;2084615;28;20571;-67
2023/08/29 09:48:56;;;;;;;16.00;10.88;;;;;;;14.32;98.06;96081.09;2082418;28;20196;-67
2023/08/29 09:49:58;;;;;;;15.05;10.70;;;;;;;14.50;99.77;96089.47;2082362;28;20203;-68
2023/08/29 09:51:00;;;;;;;16.40;10.30;;;;;;;14.43;99.89;96093.47;2081111;28;20559;-68
2023/08/29 09:52:02;;;;;;;13.20;10.35;;;;;;;14.67;100.00;96085.69;2080057;28;20232;-67
2023/08/29 09:53:05;;;;;;;16.85;11.60;;;;;;;14.64;99.26;96083.31;2082006;28;20227;-68
2023/08/29 09:55:13;;;;;;;15.85;10.88;;;;;;;14.86;100.00;96087.88;2084346;28;20558;-65
2023/08/29 09:57:31;;;;;;;12.60;9.75;;;;;;;14.72;99.27;96090.66;2083307;28;20560;-65
2023/08/29 09:59:58;;;;;;;16.38;10.63;;;;;;;14.88;98.28;96090.41;2082932;28;20561;-65
2023/08/29 10:02:30;;;;;;;13.10;9.57;;;;;;;14.47;99.38;96096.72;2096148;27;20555;-65
2023/08/29 10:05:08;;;;;;;12.07;9.82;;;;;;;14.48;99.11;96098.41;2086876;28;20563;-67
2023/08/29 10:07:37;;;;;;;15.55;10.75;;;;;;;14.51;100.00;96101.69;2080145;28;20580;-65
2023/08/29 10:08:46;;;;;;;14.50;9.50;;;;;;;14.39;99.34;96104.31;2085000;28;20272;-65
2023/08/29 10:09:48;;;;;;;15.93;11.70;;;;;;;14.48;99.93;96101.03;2078728;28;20197;-65
2023/08/29 10:10:53;;;;;;;19.60;12.15;;;;;;;14.72;99.13;96095.06;2080538;28;20529;-65
2023/08/29 10:13:06;;;;;;;11.70;10.45;;;;;;;14.75;99.23;96102.72;2118357;27;20560;-67
2023/08/29 10:15:28;;;;;;;12.32;9.85;;;;;;;14.58;97.42;96103.88;2095480;28;20567;-65
2023/08/29 10:33:23;;;;;;;17.02;13.80;;;;;;;14.75;98.88;96094.84;2092926;27;20554;-66
2023/08/29 10:35:40;;;;;;;17.13;13.20;;;;;;;14.86;97.99;96097.56;2084018;28;20600;-67
2023/08/29 10:38:14;;;;;;;21.10;12.70;;;;;;;15.18;98.12;96108.44;2100551;27;20562;-67
2023/08/29 10:39:16;;;;;;;15.20;12.80;;;;;;;15.34;97.12;96116.03;2098831;28;20813;-67
2023/08/29 10:41:51;;;;;;;13.85;12.35;;;;;;;15.41;96.19;96105.06;2085152;28;20566;-67
2023/08/29 10:42:57;;;;;;;15.15;11.70;;;;;;;15.44;95.57;96102.19;2081534;28;20228;-67
2023/08/29 10:44:24;;;;;;;17.42;11.60;;;;;;;15.49;94.31;96100.06;2081280;28;20204;-66
2023/08/29 10:46:50;;;;;;;13.13;11.57;;;;;;;15.57;93.43;96102.16;2083038;28;20569;-67
2023/08/29 10:47:52;;;;;;;12.27;10.50;;;;;;;15.52;94.36;96098.06;2078571;28;20371;-67
2023/08/29 10:55:23;;;;;;;16.73;10.23;;;;;;;15.49;93.56;96084.28;2085082;28;20568;-63
2023/08/29 10:56:39;;;;;;;12.00;10.55;;;;;;;15.62;92.95;96090.34;2084355;28;20196;-63
2023/08/29 10:57:42;;;;;;;17.75;12.27;;;;;;;15.53;91.63;96088.41;2066825;28;20712;-63
2023/08/29 10:58:45;;;;;;;12.82;11.18;;;;;;;15.61;92.16;96087.81;2062691;28;20202;-63
2023/08/29 10:59:47;;;;;;;16.00;11.18;;;;;;;15.79;91.58;96088.25;2062651;28;20261;-64
2023/08/29 11:00:49;;;;;;;15.40;11.52;;;;;;;15.89;90.52;96089.28;2064746;28;20252;-64
2023/08/29 11:01:51;;;;;;;11.30;10.15;;;;;;;15.83;91.36;96089.72;2065549;28;20217;-63
2023/08/29 11:02:52;;;;;;;20.25;11.88;;;;;;;15.79;90.33;96078.53;2071968;28;20763;-63
2023/08/29 11:03:56;;;;;;;11.88;9.45;;;;;;;15.96;89.97;96082.59;2073329;28;20231;-64
2023/08/29 11:05:04;;;;;;;18.77;10.82;;;;;;;15.98;89.43;96085.09;2073872;28;20233;-66
2023/08/29 11:06:05;;;;;;;13.05;10.07;;;;;;;15.88;89.66;96079.69;2070683;28;20228;-66
2023/08/29 11:07:08;;;;;;;15.38;11.05;;;;;;;15.97;89.92;96088.69;2074062;28;20771;-66
2023/08/29 11:08:22;;;;;;;16.90;11.15;;;;;;;15.93;89.69;96082.00;2075094;28;20619;-66
2023/08/29 11:09:25;;;;;;;13.63;9.93;;;;;;;16.11;90.96;96077.13;2073848;28;20266;-65
2023/08/29 11:10:27;;;;;;;11.52;9.90;;;;;;;16.21;90.87;96074.63;2073921;28;20198;-66
2023/08/29 11:11:28;;;;;;;13.80;10.75;;;;;;;16.23;89.59;96075.38;2074838;28;20206;-66
2023/08/29 11:12:30;;;;;;;15.20;10.60;;;;;;;16.23;88.91;96070.09;2072933;28;20217;-66
2023/08/29 11:13:31;;;;;;;13.77;11.27;;;;;;;16.24;89.46;96069.97;2072666;28;20205;-66
2023/08/29 11:14:52;;;;;;;14.75;10.23;;;;;;;15.85;88.96;96072.03;2070444;28;20213;-66
2023/08/29 11:15:54;;;;;;;15.15;9.90;;;;;;;16.08;89.20;96072.91;2073701;28;20803;-66
2023/08/29 11:17:25;;;;;;;14.02;10.48;;;;;;;16.23;88.37;96065.66;2072517;28;20347;-66
2023/08/29 11:18:30;;;;;;;13.07;10.32;;;;;;;16.09;88.32;96061.44;2073266;28;20309;-66
2023/08/29 11:19:33;;;;;;;15.82;10.10;;;;;;;16.25;88.57;96066.38;2074762;28;20207;-66
2023/08/29 11:20:35;;;;;;;10.70;9.35;;;;;;;16.27;87.95;96058.34;2074697;28;20275;-66
2023/08/29 11:21:36;;;;;;;12.88;10.80;;;;;;;16.40;88.28;96061.69;2070451;28;20201;-66
2023/08/29 11:22:38;;;;;;;14.63;9.95;;;;;;;16.44;86.90;96065.81;2071310;28;20225;-66
2023/08/29 11:23:41;;;;;;;12.52;8.35;;;;;;;16.37;87.28;96063.75;2074081;28;20622;-66
2023/08/29 11:24:43;;;;;;;12.48;7.97;;;;;;;16.42;86.01;96066.88;2070235;28;20202;-66
2023/08/29 11:25:49;;;;;;;11.15;8.35;;;;;;;16.62;86.16;96060.03;2070881;28;20198;-66
2023/08/29 11:26:51;;;;;;;12.93;8.45;;;;;;;16.70;85.56;96068.19;2073789;28;20205;-66
2023/08/29 11:27:53;;;;;;;8.20;7.20;;;;;;;16.57;84.52;96070.94;2071218;28;20272;-66
2023/08/29 11:28:54;;;;;;;10.25;7.40;;;;;;;16.68;84.44;96064.81;2073040;28;20194;-66
2023/08/29 11:29:59;;;;;;;10.27;7.63;;;;;;;16.86;84.47;96065.19;2073262;28;20198;-66
2023/08/29 11:31:21;;;;;;;10.45;6.53;;;;;;;16.79;83.58;96062.19;2073349;28;20197;-66
2023/08/29 11:32:23;;;;;;;8.52;6.63;;;;;;;16.70;83.40;96068.19;2069751;28;20233;-66
2023/08/29 11:33:35;;;;;;;9.70;6.57;;;;;;;16.67;84.84;96059.69;2070923;28;20198;-66
2023/08/29 11:34:36;;;;;;;8.70;6.57;;;;;;;16.67;86.05;96068.44;2072153;28;20205;-66
2023/08/29 11:35:38;;;;;;;10.38;7.65;;;;;;;16.66;85.98;96066.75;2073983;28;20762;-66
2023/08/29 11:36:41;;;;;;;9.60;7.18;;;;;;;16.54;85.53;96063.28;2074479;28;20663;-66
2023/08/29 11:37:42;;;;;;;10.80;7.03;;;;;;;16.48;85.92;96067.22;2072482;28;20217;-67
2023/08/29 11:38:44;;;;;;;10.02;6.88;;;;;;;16.40;85.87;96055.59;2074663;28;20198;-65
2023/08/29 11:39:55;;;;;;;10.32;7.43;;;;;;;16.24;86.19;96055.94;2089199;28;20253;-66
2023/08/29 11:41:05;;;;;;;12.68;6.72;;;;;;;16.06;86.60;96060.81;2086949;28;20225;-66
2023/08/29 11:42:22;;;;;;;11.75;7.57;;;;;;;16.02;87.89;96057.59;2072761;28;20663;-66
2023/08/29 11:43:43;;;;;;;10.50;7.07;;;;;;;15.96;87.20;96065.94;2075734;28;21147;-65
2023/08/29 11:45:06;;;;;;;9.55;6.65;;;;;;;16.14;87.93;96058.47;2075185;28;20198;-66
2023/08/29 11:46:32;;;;;;;8.40;7.13;;;;;;;16.22;87.24;96061.34;2073196;28;20216;-66
2023/08/29 11:47:34;;;;;;;12.00;7.25;;;;;;;16.02;86.51;96062.03;2073603;28;20245;-66
2023/08/29 11:48:36;;;;;;;9.77;7.97;;;;;;;16.12;87.11;96061.19;2074631;28;20568;-66
2023/08/29 11:49:40;;;;;;;10.38;7.22;;;;;;;16.19;86.19;96058.94;2074391;28;20193;-66
2023/08/29 11:50:42;;;;;;;8.95;7.80;;;;;;;16.28;87.86;96068.78;2071650;28;20256;-66
2023/08/29 11:51:44;;;;;;;11.68;8.57;;;;;;;16.12;86.42;96065.63;2072506;28;20223;-66
2023/08/29 11:52:45;;;;;;;8.05;6.80;;;;;;;16.45;87.10;96069.25;2073992;28;20221;-67
2023/08/29 11:53:50;;;;;;;11.77;7.82;;;;;;;16.35;86.27;96063.84;2075253;28;20236;-66
2023/08/29 11:54:56;;;;;;;11.73;8.18;;;;;;;16.07;86.93;96062.50;2070301;28;20233;-66
2023/08/29 11:55:58;;;;;;;11.55;8.32;;;;;;;16.06;87.26;96063.47;2073755;28;20288;-66
2023/08/29 11:56:59;;;;;;;12.73;9.45;;;;;;;16.03;87.67;96068.97;2074320;28;20204;-66
2023/08/29 11:58:02;;;;;;;11.90;8.60;;;;;;;15.90;87.26;96069.06;2074458;28;20723;-66
2023/08/29 11:59:06;;;;;;;9.40;7.75;;;;;;;15.97;87.96;96071.13;2073248;28;20285;-66
2023/08/29 12:00:09;;;;;;;12.63;8.32;;;;;;;16.11;86.93;96075.34;2072690;28;20273;-66
2023/08/29 12:01:10;;;;;;;10.30;8.10;;;;;;;15.87;88.28;96078.03;2075618;28;20189;-66
2023/08/29 12:02:14;;;;;;;12.10;8.75;;;;;;;15.98;88.76;96074.56;2071487;28;20325;-66
2023/08/29 12:03:22;;;;;;;10.95;8.07;;;;;;;15.98;87.62;96070.13;2073370;28;20211;-67
2023/08/29 12:04:23;;;;;;;14.55;8.50;;;;;;;15.98;87.17;96077.22;2074313;28;20217;-66
2023/08/29 12:05:25;;;;;;;12.70;8.40;;;;;;;16.02;87.76;96076.00;2074857;28;20266;-66
2023/08/29 12:06:27;;;;;;;9.40;7.75;;;;;;;15.91;87.99;96068.94;2064726;28;20202;-66
2023/08/29 12:07:32;;;;;;;9.43;8.52;;;;;;;16.08;89.18;96077.38;2064737;28;20226;-66
2023/08/29 12:08:44;;;;;;;11.05;8.82;;;;;;;16.31;88.37;96073.78;2067763;28;20257;-66
2023/08/29 12:09:47;;;;;;;11.75;8.88;;;;;;;16.12;86.86;96071.72;2068008;28;20198;-66
2023/08/29 12:10:50;;;;;;;9.00;8.00;;;;;;;16.02;86.61;96075.19;2067113;28;20649;-66
2023/08/29 12:11:52;;;;;;;11.07;7.95;;;;;;;15.92;88.58;96077.66;2067159;28;20198;-67
2023/08/29 12:12:53;;;;;;;12.65;8.88;;;;;;;16.11;88.82;96082.38;2069995;28;20252;-66
2023/08/29 12:14:07;;;;;;;118.72;80.07;;;;;;;16.08;87.81;96075.56;2070937;28;20197;-67
2023/08/29 12:15:14;;;;;;;20.67;12.80;;;;;;;16.20;87.45;96071.16;2069566;28;20225;-66
2023/08/29 12:16:24;;;;;;;14.85;11.57;;;;;;;16.34;86.77;96078.00;2068441;28;20198;-67
2023/08/29 12:17:33;;;;;;;16.08;9.10;;;;;;;16.49;87.25;96075.97;2069783;28;20902;-67
2023/08/29 12:18:35;;;;;;;12.73;9.73;;;;;;;16.33;87.04;96084.22;2068972;28;20561;-66
2023/08/29 12:19:36;;;;;;;9.93;7.18;;;;;;;16.40;87.38;96085.41;2065077;28;20196;-66
2023/08/29 12:20:38;;;;;;;10.88;8.55;;;;;;;15.92;88.18;96086.44;2065543;28;20199;-67
2023/08/29 12:21:40;;;;;;;19.17;8.95;;;;;;;15.93;88.04;96088.06;2067995;28;20201;-66
2023/08/29 12:22:47;;;;;;;8.85;6.95;;;;;;;16.05;88.50;96081.06;2068879;28;20303;-66
2023/08/29 12:23:49;;;;;;;11.15;7.75;;;;;;;16.03;88.39;96087.41;2083205;28;20284;-66
2023/08/29 12:24:58;;;;;;;8.30;7.43;;;;;;;16.08;88.13;96082.63;2070006;28;20194;-66
2023/08/29 12:26:00;;;;;;;14.52;7.90;;;;;;;16.00;88.34;96081.41;2067788;28;20197;-67
2023/08/29 12:27:01;;;;;;;8.18;7.35;;;;;;;16.01;89.02;96084.91;2083734;28;20676;-66
2023/08/29 12:28:05;;;;;;;9.90;7.30;;;;;;;16.09;88.98;96084.31;2082994;28;20197;-66
2023/08/29 12:29:07;;;;;;;11.55;7.30;;;;;;;16.11;89.72;96085.00;2069197;28;20208;-66
2023/08/29 12:30:14;;;;;;;20.45;8.05;;;;;;;16.06;88.89;96080.13;2068639;28;20225;-67
2023/08/29 12:31:15;;;;;;;9.10;6.97;;;;;;;16.11;89.61;96082.38;2066668;28;20209;-66
2023/08/29 12:32:17;;;;;;;14.32;8.40;;;;;;;15.97;89.88;96083.44;2065578;28;20205;-66
2023/08/29 12:33:19;;;;;;;8.90;7.80;;;;;;;16.10;89.88;96084.19;2069843;28;20889;-65
2023/08/29 12:34:20;;;;;;;9.07;7.40;;;;;;;16.04;88.80;96084.66;2066323;28;20202;-66
2023/08/29 12:35:22;;;;;;;10.13;8.00;;;;;;;16.13;88.94;96083.94;2068813;28;20206;-66
2023/08/29 12:36:24;;;;;;;9.90;7.10;;;;;;;16.14;88.78;96075.09;2064900;28;20198;-66
2023/08/29 12:37:25;;;;;;;10.88;7.63;;;;;;;16.17;87.59;96087.19;2064189;28;20226;-66
2023/08/29 12:38:27;;;;;;;9.48;7.47;;;;;;;16.14;87.16;96079.53;2069352;28;20716;-66
2023/08/29 12:39:28;;;;;;;8.65;6.95;;;;;;;16.24;87.17;96083.13;2068655;28;20194;-65
2023/08/29 12:40:30;;;;;;;10.55;7.88;;;;;;;16.22;86.87;96086.84;2067280;28;20697;-66
2023/08/29 12:43:25;;;;;;;8.77;6.85;;;;;;;16.29;86.31;96083.63;2101785;27;20554;-66
2023/08/29 12:44:27;;;;;;;10.80;6.90;;;;;;;16.13;86.97;96081.31;2099948;28;20220;-66
2023/08/29 12:47:21;;;;;;;14.23;6.55;;;;;;;15.90;85.63;96085.69;2083590;28;20584;-66
2023/08/29 12:48:23;;;;;;;10.52;6.80;;;;;;;16.08;86.30;96088.72;2074706;28;20672;-66
2023/08/29 12:51:10;;;;;;;8.68;5.90;;;;;;;16.21;84.98;96069.34;2082868;28;20559;-66
2023/08/29 12:52:14;;;;;;;8.30;6.30;;;;;;;16.32;85.77;96085.19;2080744;28;20825;-66
2023/08/29 12:55:09;;;;;;;9.00;6.75;;;;;;;16.38;85.87;96078.59;2084288;28;20555;-66
2023/08/29 12:56:12;;;;;;;10.27;7.32;;;;;;;16.36;86.25;96077.88;2081409;28;20192;-66
2023/08/29 12:57:13;;;;;;;10.65;6.65;;;;;;;16.42;86.12;96080.88;2078830;28;20234;-66
2023/08/29 12:59:59;;;;;;;13.98;6.15;;;;;;;16.28;85.71;96081.13;2098089;27;20663;-66
2023/08/29 13:01:01;;;;;;;7.63;6.75;;;;;;;16.36;85.60;96078.72;2097450;28;20191;-66
2023/08/29 13:04:05;;;;;;;6.35;5.28;;;;;;;16.55;84.71;96078.13;2083969;28;20354;-66
2023/08/29 13:05:07;;;;;;;10.82;6.13;;;;;;;16.61;83.99;96074.19;2083593;28;20200;-66
2023/08/29 13:07:55;;;;;;;8.40;5.90;;;;;;;16.32;83.70;96064.09;2088003;27;21124;-65
2023/08/29 13:08:58;;;;;;;10.70;6.18;;;;;;;16.48;84.62;96079.56;2087408;28;20875;-65
2023/08/29 13:11:51;;;;;;;8.82;6.35;;;;;;;16.48;83.79;96066.38;2084581;28;20567;-66
2023/08/29 13:14:52;;;;;;;6.30;5.15;;;;;;;16.46;84.40;96063.88;2099732;27;20561;-66
2023/08/29 13:17:32;;;;;;;7.35;4.90;;;;;;;16.81;82.38;96069.97;2086800;28;20573;-66
2023/08/29 13:20:19;;;;;;;6.40;4.82;;;;;;;16.62;83.23;96074.06;2103657;27;20581;-66
2023/08/29 13:51:48;;;;;;;10.27;5.72;;;;;;;16.69;85.80;96060.41;2085246;28;20571;-67
2023/08/29 13:54:20;;;;;;;8.35;5.35;;;;;;;16.41;86.40;96052.03;2107856;27;20567;-67
2023/08/29 13:56:49;;;;;;;8.43;5.72;;;;;;;16.46;85.99;96055.97;2093722;28;20558;-66
2023/08/29 13:59:14;;;;;;;6.57;4.10;;;;;;;16.58;82.58;96058.59;2088421;28;21091;-66
2023/08/29 14:01:58;;;;;;;7.85;2.83;;;;;;;16.81;79.76;96047.09;2091431;27;20563;-66
2023/08/29 14:02:59;;;;;;;4.90;3.35;;;;;;;16.43;77.74;96045.69;2081657;28;20220;-67
2023/08/29 14:05:29;;;;;;;4.88;2.60;;;;;;;15.74;80.00;96054.38;2082845;28;20549;-67
2023/08/29 14:06:30;;;;;;;7.20;3.35;;;;;;;15.80;80.27;96050.44;2081105;28;20193;-66
2023/08/29 14:07:31;;;;;;;7.68;3.60;;;;;;;15.73;82.09;96057.97;2076068;28;20356;-66
2023/08/29 14:10:19;;;;;;;6.05;3.15;;;;;;;16.07;80.94;96046.72;2083892;28;20552;-68
2023/08/29 14:11:20;;;;;;;7.82;3.28;;;;;;;16.32;81.24;96043.03;2091714;28;20224;-66
2023/08/29 14:12:22;;;;;;;12.07;4.90;;;;;;;16.32;80.40;96043.84;2091781;28;20224;-66
2023/08/29 14:13:24;;;;;;;9.75;4.60;;;;;;;16.53;79.91;96043.16;2078919;28;20565;-66
2023/08/29 14:14:25;;;;;;;8.82;4.57;;;;;;;16.80;78.15;96039.31;2080142;28;20273;-67
2023/08/29 14:15:27;;;;;;;6.82;4.57;;;;;;;16.59;79.24;96045.28;2080224;28;20564;-67
2023/08/29 14:16:29;;;;;;;9.98;4.45;;;;;;;16.59;80.30;96042.66;2080899;28;20204;-67
2023/08/29 14:17:30;;;;;;;7.68;5.32;;;;;;;16.78;80.35;96038.59;2080532;28;20286;-67
2023/08/29 14:18:35;;;;;;;7.45;4.63;;;;;;;17.12;80.12;96041.19;2078886;28;20275;-67
2023/08/29 14:19:37;;;;;;;9.20;4.35;;;;;;;17.34;79.55;96042.91;2080985;28;20711;-66
2023/08/29 14:20:44;;;;;;;9.60;4.95;;;;;;;17.38;78.68;96039.09;2083664;28;20208;-68
2023/08/29 14:21:45;;;;;;;7.45;4.55;;;;;;;17.46;76.68;96039.28;2081100;28;20196;-67
2023/08/29 14:22:47;;;;;;;6.30;4.45;;;;;;;17.12;77.98;96049.94;2078365;28;20450;-67
2023/08/29 14:23:49;;;;;;;6.38;5.03;;;;;;;17.29;76.38;96050.38;2082102;28;20196;-67
2023/08/29 14:24:50;;;;;;;7.88;5.90;;;;;;;17.18;77.12;96050.41;2081508;28;20692;-66
2023/08/29 14:25:53;;;;;;;11.50;4.85;;;;;;;17.09;78.33;96044.06;2082034;28;20200;-67
2023/08/29 14:26:54;;;;;;;8.65;4.72;;;;;;;17.08;77.01;96047.69;2083140;28;20640;-67
2023/08/29 14:27:57;;;;;;;13.82;3.85;;;;;;;17.08;78.69;96050.31;2082291;28;20277;-67
2023/08/29 14:28:58;;;;;;;9.10;4.10;;;;;;;17.17;79.02;96044.28;2083774;28;20201;-66
2023/08/29 14:30:00;;;;;;;6.43;4.05;;;;;;;17.30;78.80;96050.25;2082360;28;20727;-66
2023/08/29 14:31:03;;;;;;;6.38;3.78;;;;;;;17.38;79.14;96040.88;2082503;28;20208;-66
2023/08/29 14:32:06;;;;;;;6.78;3.85;;;;;;;17.44;78.39;96048.28;2082059;28;20219;-67
2023/08/29 14:33:07;;;;;;;6.60;3.53;;;;;;;16.99;76.75;96051.91;2082839;28;20211;-67
2023/08/29 14:34:11;;;;;;;6.53;4.07;;;;;;;16.82;78.56;96050.56;2082513;28;20247;-67
2023/08/29 14:35:12;;;;;;;6.05;4.32;;;;;;;16.94;79.46;96048.78;2081575;28;20552;-67
2023/08/29 14:36:14;;;;;;;7.15;3.13;;;;;;;17.19;78.76;96052.94;2081659;28;20242;-66
2023/08/29 14:37:15;;;;;;;8.35;3.97;;;;;;;17.23;77.05;96058.78;2080071;28;20245;-67
2023/08/29 14:38:17;;;;;;;4.60;3.45;;;;;;;17.32;76.28;96055.41;2081040;28;20284;-67
2023/08/29 14:39:18;;;;;;;8.40;3.83;;;;;;;17.25;75.40;96056.88;2081236;28;20197;-67
2023/08/29 14:40:24;;;;;;;4.90;3.47;;;;;;;17.20;76.78;96059.88;2082209;28;20198;-67
2023/08/29 14:41:26;;;;;;;6.20;4.20;;;;;;;17.19;77.46;96060.84;2081864;28;20277;-66
2023/08/29 14:42:27;;;;;;;4.65;3.70;;;;;;;17.28;77.70;96052.19;2081552;28;20328;-67
2023/08/29 14:43:29;;;;;;;11.73;4.10;;;;;;;17.21;77.23;96058.91;2081658;28;20201;-67
2023/08/29 14:44:30;;;;;;;5.05;3.60;;;;;;;17.08;78.15;96061.69;2082469;28;20192;-67
2023/08/29 14:45:32;;;;;;;6.40;3.33;;;;;;;17.01;79.42;96055.22;2082970;28;20197;-66
2023/08/29 14:46:33;;;;;;;7.50;4.00;;;;;;;17.18;78.92;96060.94;2082506;28;20812;-66
2023/08/29 14:47:35;;;;;;;7.30;3.85;;;;;;;17.25;78.45;96054.22;2078344;28;20332;-66
2023/08/29 14:48:37;;;;;;;6.78;3.75;;;;;;;17.40;78.09;96052.16;2079656;28;20233;-66
2023/08/29 14:49:39;;;;;;;6.68;3.95;;;;;;;16.94;78.84;96052.25;2082025;28;20292;-66
2023/08/29 14:50:44;;;;;;;6.97;3.60;;;;;;;17.02;78.08;96051.63;2079658;28;20201;-65
2023/08/29 14:51:46;;;;;;;14.02;4.40;;;;;;;16.94;78.25;96054.06;2081793;28;20205;-65
